Time;durP1;ratioP1;P1;durP2;ratioP2;P2;SDS_P1;SDS_P2;PMS_P1;PMS_P2;Temp;Humidity;BMP_temperature;BMP_pressure;BME280_temperature;BME280_humidity;BME280_pressure;Samples;Min_cycle;Max_cycle;Signal;HPM_P1;HPM_P2
2023/08/05 00:00:43;;;;;;;4.00;2.10;;;;;;;-145.14;100.00;70583.66;5004551;28;20821;-76
2023/08/05 00:03:09;;;;;;;5.07;1.90;;;;;;;-145.14;100.00;70583.66;5005722;28;20196;-77
2023/08/05 00:05:34;;;;;;;7.40;2.03;;;;;;;-145.14;100.00;70583.66;5006586;28;20265;-77
2023/08/05 00:08:00;;;;;;;3.40;1.50;;;;;;;-145.14;100.00;70583.66;5006367;28;20246;-77
2023/08/05 00:10:25;;;;;;;2.80;1.70;;;;;;;-145.14;100.00;70583.66;5004830;28;20215;-77
2023/08/05 00:12:50;;;;;;;4.90;1.90;;;;;;;-145.14;100.00;70583.66;5007475;28;20223;-77
2023/08/05 00:15:16;;;;;;;4.83;1.63;;;;;;;-145.14;100.00;70583.66;5000404;28;20216;-77
2023/08/05 00:17:41;;;;;;;3.43;1.70;;;;;;;-145.14;100.00;70583.66;5009316;28;20224;-78
2023/08/05 00:20:12;;;;;;;3.93;1.77;;;;;;;-145.14;100.00;70583.66;5015725;28;20278;-77
2023/08/05 00:22:37;;;;;;;2.87;1.43;;;;;;;-145.14;100.00;70583.66;5014802;28;20501;-77
2023/08/05 00:25:03;;;;;;;3.53;1.40;;;;;;;-145.14;100.00;70583.66;5005790;28;20556;-77
2023/08/05 00:27:28;;;;;;;3.00;1.50;;;;;;;-145.14;100.00;70583.66;5002771;28;20193;-77
2023/08/05 00:29:54;;;;;;;5.30;2.20;;;;;;;-145.14;100.00;70583.66;5013271;28;20231;-77
2023/08/05 00:32:19;;;;;;;3.17;1.57;;;;;;;-145.14;100.00;70583.66;5011932;28;20197;-76
2023/08/05 00:34:45;;;;;;;2.57;1.40;;;;;;;-145.14;100.00;70583.66;5012163;28;20216;-77
2023/08/05 00:37:10;;;;;;;2.57;1.37;;;;;;;-145.14;100.00;70583.66;5010938;28;20223;-77
2023/08/05 00:39:36;;;;;;;4.17;1.77;;;;;;;-145.14;100.00;70583.66;5013905;28;20748;-77
2023/08/05 00:42:01;;;;;;;3.50;1.70;;;;;;;-145.14;100.00;70583.66;5016192;28;20196;-77
2023/08/05 00:44:27;;;;;;;3.40;1.90;;;;;;;-145.14;100.00;70583.66;5009778;28;20219;-77
2023/08/05 00:46:52;;;;;;;3.40;1.27;;;;;;;-145.14;100.00;70583.66;5011447;28;20212;-77
2023/08/05 00:49:19;;;;;;;4.07;1.43;;;;;;;-145.14;100.00;70583.66;5006431;28;20274;-77
2023/08/05 00:51:46;;;;;;;2.67;1.30;;;;;;;-145.14;100.00;70583.66;5011728;28;20266;-77
2023/08/05 00:54:11;;;;;;;4.20;1.80;;;;;;;-145.14;100.00;70583.66;5007620;28;21318;-77
2023/08/05 00:56:37;;;;;;;4.67;1.70;;;;;;;-145.14;100.00;70583.66;5007757;28;20512;-77
2023/08/05 00:59:02;;;;;;;3.17;1.43;;;;;;;-145.14;100.00;70583.66;5018096;28;20212;-77
2023/08/05 01:01:28;;;;;;;2.90;1.60;;;;;;;-145.14;100.00;70583.66;5010371;28;20213;-77
2023/08/05 01:03:53;;;;;;;6.20;2.87;;;;;;;-145.14;100.00;70583.66;5009239;28;20319;-77
2023/08/05 01:06:21;;;;;;;2.70;1.57;;;;;;;-145.14;100.00;70583.66;5011671;28;20217;-77
2023/08/05 01:08:47;;;;;;;2.97;1.37;;;;;;;-145.14;100.00;70583.66;5011459;28;20181;-77
2023/08/05 01:11:13;;;;;;;4.50;1.33;;;;;;;-145.14;100.00;70583.66;5011425;28;20443;-77
2023/08/05 01:13:42;;;;;;;2.53;1.60;;;;;;;-145.14;100.00;70583.66;5008749;28;20448;-76
2023/08/05 01:16:08;;;;;;;4.47;1.60;;;;;;;-145.14;100.00;70583.66;5010354;28;20212;-76
2023/08/05 01:18:36;;;;;;;4.17;1.40;;;;;;;-145.14;100.00;70583.66;5012348;28;20537;-77
2023/08/05 01:21:03;;;;;;;3.47;1.53;;;;;;;-145.14;100.00;70583.66;5011777;28;20184;-77
2023/08/05 01:23:37;;;;;;;3.00;1.63;;;;;;;-145.14;100.00;70583.66;5011420;28;20974;-77
2023/08/05 01:26:05;;;;;;;3.27;1.40;;;;;;;-145.14;100.00;70583.66;5012969;28;20475;-77
2023/08/05 01:28:32;;;;;;;2.30;1.50;;;;;;;-145.14;100.00;70583.66;5010697;28;20509;-76
2023/08/05 01:31:00;;;;;;;2.63;1.40;;;;;;;-145.14;100.00;70583.66;5010756;28;20550;-77
2023/08/05 01:33:26;;;;;;;3.63;1.70;;;;;;;-145.14;100.00;70583.66;5011348;28;20439;-77
2023/08/05 01:35:51;;;;;;;3.20;1.47;;;;;;;-145.14;100.00;70583.66;5012067;28;20482;-77
2023/08/05 01:38:17;;;;;;;2.90;1.27;;;;;;;-145.14;100.00;70583.66;5011710;28;20790;-76
2023/08/05 01:40:44;;;;;;;2.87;1.60;;;;;;;-145.14;100.00;70583.66;5013534;28;20361;-77
2023/08/05 01:43:09;;;;;;;2.40;1.27;;;;;;;-145.14;100.00;70583.66;5009512;28;20203;-76
2023/08/05 01:45:35;;;;;;;2.77;1.30;;;;;;;-145.14;100.00;70583.66;5011834;28;20468;-76
2023/08/05 01:48:00;;;;;;;3.87;1.67;;;;;;;-145.14;100.00;70583.66;5013898;28;20188;-76
2023/08/05 01:50:26;;;;;;;7.03;1.93;;;;;;;-145.14;100.00;70583.66;5011777;28;20297;-77
2023/08/05 01:52:53;;;;;;;3.10;1.50;;;;;;;-145.14;100.00;70583.66;5018437;28;20224;-77
2023/08/05 01:55:19;;;;;;;4.10;1.80;;;;;;;-145.14;100.00;70583.66;5014782;28;20239;-76
2023/08/05 01:57:44;;;;;;;3.00;1.53;;;;;;;-145.14;100.00;70583.66;5011972;28;20551;-76
2023/08/05 02:00:10;;;;;;;2.63;1.47;;;;;;;-145.14;100.00;70583.66;5012893;28;22382;-76
2023/08/05 02:02:36;;;;;;;3.27;1.70;;;;;;;-145.14;100.00;70583.66;5010428;28;20362;-77
2023/08/05 02:05:01;;;;;;;5.90;1.97;;;;;;;-145.14;100.00;70583.66;5012752;28;20463;-76
2023/08/05 02:07:27;;;;;;;3.33;1.90;;;;;;;-145.14;100.00;70583.66;5014244;28;20189;-76
2023/08/05 02:09:52;;;;;;;8.20;1.87;;;;;;;-145.14;100.00;70583.66;5012144;28;20653;-77
2023/08/05 02:12:18;;;;;;;4.50;1.80;;;;;;;-145.14;100.00;70583.66;5010599;28;20192;-77
2023/08/05 02:14:43;;;;;;;4.87;1.60;;;;;;;-145.14;100.00;70583.66;5015957;28;20204;-77
2023/08/05 02:17:08;;;;;;;2.43;1.40;;;;;;;-145.14;100.00;70583.66;5009813;28;20652;-77
2023/08/05 02:19:34;;;;;;;4.00;2.20;;;;;;;-145.14;100.00;70583.66;5010894;28;20225;-76
2023/08/05 02:21:59;;;;;;;2.47;1.60;;;;;;;-145.14;100.00;70583.66;5009618;28;20188;-76
2023/08/05 02:24:25;;;;;;;3.13;1.90;;;;;;;-145.14;100.00;70583.66;5015072;28;20227;-76
2023/08/05 02:26:50;;;;;;;4.93;1.60;;;;;;;-145.14;100.00;70583.66;5008934;28;20228;-76
2023/08/05 02:29:16;;;;;;;3.57;1.53;;;;;;;-145.14;100.00;70583.66;5008384;28;20275;-77
2023/08/05 02:31:41;;;;;;;4.03;1.70;;;;;;;-145.14;100.00;70583.66;5010057;28;20193;-77
2023/08/05 02:34:07;;;;;;;2.33;1.40;;;;;;;-145.14;100.00;70583.66;5007355;28;20188;-77
2023/08/05 02:36:32;;;;;;;3.53;1.70;;;;;;;-145.14;100.00;70583.66;5007422;28;20208;-76
2023/08/05 02:38:58;;;;;;;2.93;1.63;;;;;;;-145.14;100.00;70583.66;5008012;28;20707;-77
2023/08/05 02:41:23;;;;;;;3.40;1.63;;;;;;;-145.14;100.00;70583.66;5009006;28;20188;-77
2023/08/05 02:43:49;;;;;;;4.63;1.90;;;;;;;-145.14;100.00;70583.66;5012087;28;20193;-77
2023/08/05 02:46:14;;;;;;;2.57;1.60;;;;;;;-145.14;100.00;70583.66;5008350;28;20291;-77
2023/08/05 02:48:40;;;;;;;4.13;1.60;;;;;;;-145.14;100.00;70583.66;5008477;28;20200;-77
2023/08/05 02:51:05;;;;;;;4.93;1.70;;;;;;;-145.14;100.00;70583.66;5008494;28;20280;-77
2023/08/05 02:53:31;;;;;;;4.10;1.77;;;;;;;-145.14;100.00;70583.66;5008154;28;20696;-77
2023/08/05 02:55:56;;;;;;;3.93;1.87;;;;;;;-145.14;100.00;70583.66;5010569;28;20237;-77
2023/08/05 02:58:22;;;;;;;3.00;1.50;;;;;;;-145.14;100.00;70583.66;5011840;28;20587;-77
2023/08/05 03:00:47;;;;;;;6.63;1.80;;;;;;;-145.14;100.00;70583.66;5008531;28;20535;-77
2023/08/05 03:03:14;;;;;;;4.10;1.93;;;;;;;-145.14;100.00;70583.66;5004738;28;20203;-77
2023/08/05 03:05:40;;;;;;;3.47;2.10;;;;;;;-145.14;100.00;70583.66;5008343;28;20208;-77
2023/08/05 03:08:06;;;;;;;5.67;2.47;;;;;;;-145.14;100.00;70583.66;5023055;28;20450;-77
2023/08/05 03:10:31;;;;;;;3.30;1.73;;;;;;;-145.14;100.00;70583.66;5008892;28;20615;-77
2023/08/05 03:12:57;;;;;;;3.77;1.90;;;;;;;-145.14;100.00;70583.66;5008043;28;20219;-77
2023/08/05 03:15:22;;;;;;;4.70;2.03;;;;;;;-145.14;100.00;70583.66;5012973;28;20691;-77
2023/08/05 03:17:47;;;;;;;4.40;2.03;;;;;;;-145.14;100.00;70583.66;5007935;28;20213;-78
2023/08/05 03:20:24;;;;;;;3.60;1.93;;;;;;;-145.14;100.00;70583.66;5010365;28;20192;-78
2023/08/05 03:22:52;;;;;;;4.40;2.00;;;;;;;-145.14;100.00;70583.66;5007726;28;20192;-77
2023/08/05 03:25:18;;;;;;;3.27;1.80;;;;;;;-145.14;100.00;70583.66;5010362;28;20569;-77
2023/08/05 03:27:43;;;;;;;2.83;1.77;;;;;;;-145.14;100.00;70583.66;5004764;28;20538;-77
2023/08/05 03:30:09;;;;;;;3.60;1.83;;;;;;;-145.14;100.00;70583.66;5007547;28;20664;-77
2023/08/05 03:32:34;;;;;;;2.60;1.47;;;;;;;-145.14;100.00;70583.66;5005561;28;20197;-77
2023/08/05 03:35:00;;;;;;;4.83;2.00;;;;;;;-145.14;100.00;70583.66;5004955;28;21113;-78
2023/08/05 03:37:26;;;;;;;3.20;2.10;;;;;;;-145.14;100.00;70583.66;5007066;28;20310;-77
2023/08/05 03:39:52;;;;;;;5.60;2.20;;;;;;;-145.14;100.00;70583.66;5014993;28;20223;-77
2023/08/05 03:42:17;;;;;;;10.30;2.77;;;;;;;-145.14;100.00;70583.66;5007697;28;20844;-78
2023/08/05 03:44:43;;;;;;;3.70;1.80;;;;;;;-145.14;100.00;70583.66;5010670;28;20858;-78
2023/08/05 03:47:08;;;;;;;3.20;1.70;;;;;;;-145.14;100.00;70583.66;5011053;28;20181;-78
2023/08/05 03:49:34;;;;;;;4.43;2.03;;;;;;;-145.14;100.00;70583.66;5008024;28;20189;-78
2023/08/05 03:51:59;;;;;;;3.30;1.70;;;;;;;-145.14;100.00;70583.66;5010389;28;20191;-78
2023/08/05 03:54:25;;;;;;;4.57;2.00;;;;;;;-145.14;100.00;70583.66;5006634;28;20397;-77
2023/08/05 03:56:51;;;;;;;3.50;1.87;;;;;;;-145.14;100.00;70583.66;5011100;28;20649;-78
2023/08/05 03:59:16;;;;;;;3.40;1.70;;;;;;;-145.14;100.00;70583.66;5005647;28;20212;-77
2023/08/05 04:01:43;;;;;;;3.00;1.50;;;;;;;-145.14;100.00;70583.66;5007398;28;20216;-77
2023/08/05 04:04:09;;;;;;;3.30;1.80;;;;;;;-145.14;100.00;70583.66;5004218;28;20193;-77
2023/08/05 04:06:34;;;;;;;4.03;2.23;;;;;;;-145.14;100.00;70583.66;5020209;28;20468;-77
2023/08/05 04:09:00;;;;;;;4.17;1.87;;;;;;;-145.14;100.00;70583.66;5011881;28;20195;-78
2023/08/05 04:11:26;;;;;;;4.47;1.77;;;;;;;-145.14;100.00;70583.66;5005575;28;20197;-77
2023/08/05 04:13:52;;;;;;;3.43;2.00;;;;;;;-145.14;100.00;70583.66;5010200;28;20195;-77
2023/08/05 04:16:19;;;;;;;4.43;1.97;;;;;;;-145.14;100.00;70583.66;5007604;28;20472;-77
2023/08/05 04:18:48;;;;;;;4.03;1.87;;;;;;;-145.14;100.00;70583.66;5008050;28;20483;-77
2023/08/05 04:21:13;;;;;;;7.47;2.83;;;;;;;-145.14;100.00;70583.66;5007372;28;20610;-77
2023/08/05 04:23:41;;;;;;;5.43;1.73;;;;;;;-145.14;100.00;70583.66;5006317;28;20891;-77
2023/08/05 04:26:07;;;;;;;2.67;1.60;;;;;;;-145.14;100.00;70583.66;5007563;28;20320;-77
2023/08/05 04:28:32;;;;;;;4.00;1.90;;;;;;;-145.14;100.00;70583.66;5006453;28;20446;-76
2023/08/05 04:30:58;;;;;;;3.10;2.00;;;;;;;-145.14;100.00;70583.66;5006134;28;20782;-77
2023/08/05 04:33:27;;;;;;;3.77;2.30;;;;;;;-145.14;100.00;70583.66;5014708;28;20681;-76
2023/08/05 04:35:53;;;;;;;6.00;2.00;;;;;;;-145.14;100.00;70583.66;5013839;28;21248;-77
2023/08/05 04:38:18;;;;;;;4.37;2.10;;;;;;;-145.14;100.00;70583.66;5008537;28;20476;-77
2023/08/05 04:40:44;;;;;;;4.10;2.10;;;;;;;-145.14;100.00;70583.66;5008474;28;20215;-77
2023/08/05 04:43:10;;;;;;;4.23;1.83;;;;;;;-145.14;100.00;70583.66;5009322;28;20199;-77
2023/08/05 04:45:36;;;;;;;5.70;2.10;;;;;;;-145.14;100.00;70583.66;5009415;28;20471;-77
2023/08/05 04:48:04;;;;;;;4.23;2.13;;;;;;;-145.14;100.00;70583.66;5010726;28;20440;-77
2023/08/05 04:50:29;;;;;;;3.20;2.00;;;;;;;-145.14;100.00;70583.66;5007987;28;20185;-77
2023/08/05 04:52:54;;;;;;;3.37;1.90;;;;;;;-145.14;100.00;70583.66;5008018;28;20447;-77
2023/08/05 04:55:20;;;;;;;4.80;2.20;;;;;;;-145.14;100.00;70583.66;5007402;28;20278;-77
2023/08/05 04:57:50;;;;;;;3.40;2.20;;;;;;;-145.14;100.00;70583.66;5010875;28;20192;-77
2023/08/05 05:00:16;;;;;;;8.07;5.50;;;;;;;-145.14;100.00;70583.66;5007679;28;20184;-77
2023/08/05 05:02:41;;;;;;;7.93;6.50;;;;;;;-145.14;100.00;70583.66;5007876;28;20446;-76
2023/08/05 05:05:07;;;;;;;8.37;4.47;;;;;;;-145.14;100.00;70583.66;5006329;28;20220;-78
2023/08/05 05:07:32;;;;;;;4.47;2.90;;;;;;;-145.14;100.00;70583.66;5007349;28;20193;-77
2023/08/05 05:09:58;;;;;;;4.17;2.27;;;;;;;-145.14;100.00;70583.66;5002878;28;20634;-77
2023/08/05 05:12:24;;;;;;;4.83;2.23;;;;;;;-145.14;100.00;70583.66;5006802;28;20569;-77
2023/08/05 05:14:49;;;;;;;3.40;1.93;;;;;;;-145.14;100.00;70583.66;5010628;28;20544;-77
2023/08/05 05:17:15;;;;;;;3.83;1.83;;;;;;;-145.14;100.00;70583.66;5013463;28;20200;-76
2023/08/05 05:19:42;;;;;;;7.10;2.50;;;;;;;-145.14;100.00;70583.66;5008955;28;20220;-77
2023/08/05 05:22:08;;;;;;;5.53;2.03;;;;;;;-145.14;100.00;70583.66;5014385;28;20439;-77
2023/08/05 05:24:34;;;;;;;3.43;2.10;;;;;;;-145.14;100.00;70583.66;5011056;28;21200;-76
2023/08/05 05:26:59;;;;;;;4.67;2.00;;;;;;;-145.14;100.00;70583.66;5014171;28;20440;-77
2023/08/05 05:29:25;;;;;;;4.20;2.33;;;;;;;-145.14;100.00;70583.66;5010668;28;20189;-77
2023/08/05 05:31:50;;;;;;;3.37;1.83;;;;;;;-145.14;100.00;70583.66;5012216;28;21187;-77
2023/08/05 05:34:15;;;;;;;6.27;2.47;;;;;;;-145.14;100.00;70583.66;5014016;28;20604;-76
2023/08/05 05:36:41;;;;;;;4.73;1.73;;;;;;;-145.14;100.00;70583.66;5010017;28;20694;-77
2023/08/05 05:39:06;;;;;;;4.43;2.10;;;;;;;-145.14;100.00;70583.66;5012708;28;20240;-76
2023/08/05 05:41:32;;;;;;;6.67;2.27;;;;;;;-145.14;100.00;70583.66;5012836;28;20189;-77
2023/08/05 05:43:58;;;;;;;4.00;1.93;;;;;;;-145.14;100.00;70583.66;5008458;28;20195;-76
2023/08/05 05:46:25;;;;;;;4.00;1.90;;;;;;;-145.14;100.00;70583.66;5017528;28;20216;-75
2023/08/05 05:48:50;;;;;;;4.23;1.90;;;;;;;-145.14;100.00;70583.66;5015584;28;20444;-76
2023/08/05 05:51:16;;;;;;;4.30;2.03;;;;;;;-145.14;100.00;70583.66;5011974;28;20452;-75
2023/08/05 05:53:42;;;;;;;4.20;1.93;;;;;;;-145.14;100.00;70583.66;5008801;28;20568;-75
2023/08/05 05:56:08;;;;;;;4.63;2.13;;;;;;;-145.14;100.00;70583.66;5011942;28;20300;-75
2023/08/05 05:58:34;;;;;;;4.30;2.40;;;;;;;-145.14;100.00;70583.66;5014418;28;20492;-75
2023/08/05 06:01:01;;;;;;;3.80;1.80;;;;;;;-145.14;100.00;70583.66;5015911;28;20193;-76
2023/08/05 06:03:26;;;;;;;5.63;2.40;;;;;;;-145.14;100.00;70583.66;5013058;28;20435;-75
2023/08/05 06:05:52;;;;;;;5.13;2.03;;;;;;;-145.14;100.00;70583.66;5010626;28;20470;-76
2023/08/05 06:08:17;;;;;;;4.70;1.87;;;;;;;-145.14;100.00;70583.66;5011726;28;20250;-75
2023/08/05 06:10:43;;;;;;;4.00;1.90;;;;;;;-145.14;100.00;70583.66;5015632;28;20464;-75
2023/08/05 06:13:09;;;;;;;3.70;1.90;;;;;;;-145.14;100.00;70583.66;5016642;28;20250;-76
2023/08/05 06:15:38;;;;;;;3.00;1.63;;;;;;;-145.14;100.00;70583.66;5015540;28;20197;-75
2023/08/05 06:18:04;;;;;;;6.00;2.33;;;;;;;-145.14;100.00;70583.66;5012257;28;20291;-75
2023/08/05 06:20:29;;;;;;;3.90;2.00;;;;;;;-145.14;100.00;70583.66;5015209;28;20650;-75
2023/08/05 06:22:55;;;;;;;4.00;1.90;;;;;;;-145.14;100.00;70583.66;5022656;28;20228;-75
2023/08/05 06:25:20;;;;;;;3.67;1.77;;;;;;;-145.14;100.00;70583.66;5011400;28;20489;-75
2023/08/05 06:27:46;;;;;;;3.70;2.10;;;;;;;-145.14;100.00;70583.66;5013787;28;20185;-76
2023/08/05 06:30:11;;;;;;;6.87;2.33;;;;;;;-145.14;100.00;70583.66;5015055;28;20189;-75
2023/08/05 06:32:37;;;;;;;4.90;2.23;;;;;;;-145.14;100.00;70583.66;5015894;28;20191;-75
2023/08/05 06:35:03;;;;;;;4.43;2.20;;;;;;;-145.14;100.00;70583.66;5016589;28;21860;-75
2023/08/05 06:37:28;;;;;;;6.70;2.13;;;;;;;-145.14;100.00;70583.66;5012838;28;20987;-76
2023/08/05 06:39:53;;;;;;;5.50;2.07;;;;;;;-145.14;100.00;70583.66;5012315;28;20470;-76
2023/08/05 06:42:23;;;;;;;5.83;2.10;;;;;;;-145.14;100.00;70583.66;5006099;28;20250;-76
2023/08/05 06:44:49;;;;;;;3.30;1.57;;;;;;;-145.14;100.00;70583.66;5002510;28;20216;-76
2023/08/05 06:47:15;;;;;;;3.20;2.00;;;;;;;-145.14;100.00;70583.66;5009767;28;20508;-76
2023/08/05 06:49:40;;;;;;;3.83;2.13;;;;;;;-145.14;100.00;70583.66;5007462;28;20443;-75
2023/08/05 06:52:06;;;;;;;3.43;2.50;;;;;;;-145.14;100.00;70583.66;5009502;28;20894;-75
2023/08/05 06:54:32;;;;;;;6.30;1.80;;;;;;;-145.14;100.00;70583.66;5012989;28;20188;-72
2023/08/05 06:56:58;;;;;;;2.40;1.60;;;;;;;-145.14;100.00;70583.66;5009752;28;20784;-72
2023/08/05 06:59:23;;;;;;;5.40;2.63;;;;;;;-145.14;100.00;70583.66;5006751;28;20248;-72
2023/08/05 07:01:49;;;;;;;4.03;1.67;;;;;;;-145.14;100.00;70583.66;5008973;28;20274;-72
2023/08/05 07:04:14;;;;;;;3.60;1.40;;;;;;;-145.14;100.00;70583.66;5007077;28;20227;-72
2023/08/05 07:06:41;;;;;;;3.03;1.40;;;;;;;-145.14;100.00;70583.66;5012493;28;20216;-73
2023/08/05 07:09:06;;;;;;;3.07;1.70;;;;;;;-145.14;100.00;70583.66;5019804;28;20185;-72
2023/08/05 07:11:32;;;;;;;3.80;2.10;;;;;;;-145.14;100.00;70583.66;5014393;28;20435;-71
2023/08/05 07:13:58;;;;;;;3.30;1.43;;;;;;;-145.14;100.00;70583.66;5017451;28;20223;-72
2023/08/05 07:16:23;;;;;;;3.67;1.90;;;;;;;-145.14;100.00;70583.66;5011892;28;20247;-72
2023/08/05 07:18:49;;;;;;;3.53;1.60;;;;;;;-145.14;100.00;70583.66;5012104;28;20245;-73
2023/08/05 07:21:15;;;;;;;3.17;1.50;;;;;;;-145.14;100.00;70583.66;5007755;28;20217;-70
2023/08/05 07:23:40;;;;;;;3.50;1.87;;;;;;;-145.14;100.00;70583.66;5010449;28;20547;-69
2023/08/05 07:26:06;;;;;;;4.20;1.83;;;;;;;-145.14;100.00;70583.66;5006885;28;20473;-69
2023/08/05 07:28:31;;;;;;;3.33;1.93;;;;;;;-145.14;100.00;70583.66;5007586;28;20665;-69
2023/08/05 07:31:07;;;;;;;3.43;1.53;;;;;;;-145.14;100.00;70583.66;5006996;28;20216;-69
2023/08/05 07:33:33;;;;;;;5.17;1.60;;;;;;;-145.14;100.00;70583.66;4997585;28;20240;-70
2023/08/05 07:36:16;;;;;;;4.27;2.43;;;;;;;-145.14;100.00;70583.66;5004345;28;20843;-70
2023/08/05 07:38:43;;;;;;;4.20;1.53;;;;;;;-145.14;100.00;70583.66;5009242;28;20998;-69
2023/08/05 07:41:09;;;;;;;4.87;2.07;;;;;;;-145.14;100.00;70583.66;5020984;28;20496;-69
2023/08/05 07:43:36;;;;;;;3.47;1.47;;;;;;;-145.14;100.00;70583.66;5011664;28;20440;-69
2023/08/05 07:46:06;;;;;;;3.00;1.50;;;;;;;-145.14;100.00;70583.66;5003271;28;21053;-70
2023/08/05 07:48:35;;;;;;;4.33;1.90;;;;;;;-145.14;100.00;70583.66;5014202;28;20444;-70
2023/08/05 07:51:02;;;;;;;2.40;1.30;;;;;;;-145.14;100.00;70583.66;5011498;28;20445;-70
2023/08/05 07:53:30;;;;;;;2.50;1.50;;;;;;;-145.14;100.00;70583.66;5013744;28;20482;-69
2023/08/05 07:55:56;;;;;;;2.73;1.20;;;;;;;-145.14;100.00;70583.66;5010898;28;20456;-70
2023/08/05 07:58:21;;;;;;;2.20;1.13;;;;;;;-145.14;100.00;70583.66;5008461;28;20494;-69
2023/08/05 08:00:47;;;;;;;1.80;1.13;;;;;;;-145.14;100.00;70583.66;5008466;28;21245;-70
2023/08/05 08:03:12;;;;;;;5.23;1.70;;;;;;;-145.14;100.00;70583.66;5010254;28;20193;-70
2023/08/05 08:05:37;;;;;;;5.30;1.77;;;;;;;-145.14;100.00;70583.66;5010039;28;20227;-70
2023/08/05 08:08:03;;;;;;;2.50;1.60;;;;;;;-145.14;100.00;70583.66;5005636;28;20216;-70
2023/08/05 08:10:29;;;;;;;4.60;1.63;;;;;;;-145.14;100.00;70583.66;5006255;28;20196;-69
2023/08/05 08:12:54;;;;;;;3.03;1.20;;;;;;;-145.14;100.00;70583.66;5007273;28;20436;-70
2023/08/05 08:15:20;;;;;;;6.40;1.40;;;;;;;-145.14;100.00;70583.66;5007074;28;20273;-70
2023/08/05 08:17:46;;;;;;;3.10;1.40;;;;;;;-145.14;100.00;70583.66;5008755;28;20205;-70
2023/08/05 08:20:11;;;;;;;2.97;1.67;;;;;;;-145.14;100.00;70583.66;5005438;28;20523;-70
2023/08/05 08:22:37;;;;;;;2.53;1.30;;;;;;;-145.14;100.00;70583.66;5009153;28;20193;-70
2023/08/05 08:25:03;;;;;;;3.07;2.07;;;;;;;-145.14;100.00;70583.66;5009234;28;20219;-70
2023/08/05 08:27:28;;;;;;;2.33;1.37;;;;;;;-145.14;100.00;70583.66;5012454;28;20191;-69
2023/08/05 08:29:53;;;;;;;3.20;1.57;;;;;;;-145.14;100.00;70583.66;5008414;28;20439;-69
2023/08/05 08:32:19;;;;;;;5.50;1.57;;;;;;;-145.14;100.00;70583.66;5009718;28;20626;-70
2023/08/05 08:34:44;;;;;;;3.43;1.67;;;;;;;-145.14;100.00;70583.66;5004210;28;20802;-69
2023/08/05 08:37:10;;;;;;;2.33;1.27;;;;;;;-145.14;100.00;70583.66;5004205;28;20332;-70
2023/08/05 08:39:36;;;;;;;2.50;1.40;;;;;;;-145.14;100.00;70583.66;5009180;28;20240;-70
2023/08/05 08:42:01;;;;;;;3.30;1.90;;;;;;;-145.14;100.00;70583.66;5008391;28;20802;-69
2023/08/05 08:44:27;;;;;;;3.60;1.70;;;;;;;-145.14;100.00;70583.66;5009171;28;20246;-69
2023/08/05 08:46:53;;;;;;;4.27;2.43;;;;;;;-145.14;100.00;70583.66;5008645;28;20207;-70
2023/08/05 08:49:20;;;;;;;3.17;1.33;;;;;;;-145.14;100.00;70583.66;5008805;28;20573;-69
2023/08/05 08:51:50;;;;;;;3.27;1.73;;;;;;;-145.14;100.00;70583.66;5016506;28;20461;-69
2023/08/05 08:54:17;;;;;;;2.80;1.50;;;;;;;-145.14;100.00;70583.66;5002888;28;20533;-70
2023/08/05 08:56:43;;;;;;;3.13;1.63;;;;;;;-145.14;100.00;70583.66;5004500;28;22514;-69
2023/08/05 08:59:08;;;;;;;2.80;1.70;;;;;;;-145.14;100.00;70583.66;4999119;28;20977;-69
2023/08/05 09:01:38;;;;;;;3.07;1.60;;;;;;;-145.14;100.00;70583.66;5005362;28;20263;-69
2023/08/05 09:04:06;;;;;;;2.60;1.20;;;;;;;-145.14;100.00;70583.66;5007481;28;20288;-69
2023/08/05 09:06:32;;;;;;;2.77;1.27;;;;;;;-145.14;100.00;70583.66;5011601;28;20957;-68
2023/08/05 09:08:57;;;;;;;3.13;1.80;;;;;;;-145.14;100.00;70583.66;5011698;28;20443;-69
2023/08/05 09:11:23;;;;;;;4.90;2.80;;;;;;;-145.14;100.00;70583.66;5014260;28;20650;-69
2023/08/05 09:13:50;;;;;;;4.33;1.80;;;;;;;-145.14;100.00;70583.66;5010425;28;20621;-69
2023/08/05 09:16:15;;;;;;;2.33;1.63;;;;;;;-145.14;100.00;70583.66;5011569;28;20216;-69
2023/08/05 09:19:00;;;;;;;4.83;1.50;;;;;;;-145.14;100.00;70583.66;5016539;28;20469;-69
2023/08/05 09:21:27;;;;;;;4.00;1.80;;;;;;;-145.14;100.00;70583.66;5016553;28;20244;-69
2023/08/05 09:23:54;;;;;;;2.20;1.20;;;;;;;-145.14;100.00;70583.66;5011766;28;20477;-69
2023/08/05 09:26:32;;;;;;;3.50;1.40;;;;;;;-145.14;100.00;70583.66;5012827;28;20483;-69
2023/08/05 09:28:59;;;;;;;2.93;1.50;;;;;;;-145.14;100.00;70583.66;5014920;28;20490;-69
2023/08/05 09:31:25;;;;;;;3.93;1.50;;;;;;;-145.14;100.00;70583.66;5017622;28;20576;-68
2023/08/05 09:33:52;;;;;;;2.30;1.27;;;;;;;-145.14;100.00;70583.66;5015970;28;20424;-69
2023/08/05 09:36:22;;;;;;;2.63;1.47;;;;;;;-145.14;100.00;70583.66;5022018;28;20848;-69
2023/08/05 09:39:01;;;;;;;2.60;1.73;;;;;;;-145.14;100.00;70583.66;5011166;28;20471;-69
2023/08/05 09:41:31;;;;;;;3.60;1.60;;;;;;;-145.14;100.00;70583.66;5017614;28;20453;-70
2023/08/05 09:43:58;;;;;;;2.50;1.33;;;;;;;-145.14;100.00;70583.66;5011273;28;20529;-69
2023/08/05 09:46:32;;;;;;;1.80;1.00;;;;;;;-145.14;100.00;70583.66;5007827;28;20466;-69
2023/08/05 09:48:58;;;;;;;3.47;1.30;;;;;;;-145.14;100.00;70583.66;5012573;28;21017;-68
2023/08/05 09:51:23;;;;;;;2.27;1.27;;;;;;;-145.14;100.00;70583.66;5006304;28;20448;-69
2023/08/05 09:53:53;;;;;;;3.57;1.47;;;;;;;-145.14;100.00;70583.66;5007966;28;20562;-69
2023/08/05 09:56:20;;;;;;;2.10;1.30;;;;;;;-145.14;100.00;70583.66;5004378;28;20213;-69
2023/08/05 09:58:48;;;;;;;4.33;1.77;;;;;;;-145.14;100.00;70583.66;5007040;28;20825;-70
2023/08/05 10:01:13;;;;;;;3.50;1.40;;;;;;;-145.14;100.00;70583.66;5008691;28;20459;-70
2023/08/05 10:03:39;;;;;;;2.90;1.63;;;;;;;-145.14;100.00;70583.66;5008536;28;21006;-70
2023/08/05 10:06:08;;;;;;;2.47;1.40;;;;;;;-145.14;100.00;70583.66;5005461;28;20641;-69
2023/08/05 10:08:39;;;;;;;2.63;1.47;;;;;;;-145.14;100.00;70583.66;5014548;28;20440;-70
2023/08/05 10:11:06;;;;;;;3.60;1.27;;;;;;;-145.14;100.00;70583.66;5010758;28;20432;-70
2023/08/05 10:13:38;;;;;;;3.57;1.87;;;;;;;-145.14;100.00;70583.66;5007760;28;20533;-69
2023/08/05 10:16:06;;;;;;;2.60;1.73;;;;;;;-145.14;100.00;70583.66;5002952;28;20848;-70
2023/08/05 10:18:34;;;;;;;3.00;1.30;;;;;;;-145.14;100.00;70583.66;5004571;28;20494;-69
2023/08/05 10:21:04;;;;;;;1.73;1.13;;;;;;;-145.14;100.00;70583.66;4999656;28;20443;-69
2023/08/05 10:23:32;;;;;;;2.03;1.43;;;;;;;-145.14;100.00;70583.66;5009653;28;20954;-69
2023/08/05 10:26:00;;;;;;;4.00;1.40;;;;;;;-145.14;100.00;70583.66;5008033;28;20479;-69
2023/08/05 10:28:25;;;;;;;2.83;1.40;;;;;;;-145.14;100.00;70583.66;5008316;28;20442;-69
2023/08/05 10:30:54;;;;;;;2.50;1.40;;;;;;;-145.14;100.00;70583.66;5010053;28;20442;-69
2023/08/05 10:33:19;;;;;;;2.57;1.57;;;;;;;-145.14;100.00;70583.66;5009055;28;20295;-69
2023/08/05 10:35:46;;;;;;;3.53;1.40;;;;;;;-145.14;100.00;70583.66;5005925;28;20884;-69
2023/08/05 10:38:19;;;;;;;4.10;1.80;;;;;;;-145.14;100.00;70583.66;5009240;28;20479;-69
2023/08/05 10:41:02;;;;;;;2.30;1.40;;;;;;;-145.14;100.00;70583.66;5001990;28;20460;-69
2023/08/05 10:43:31;;;;;;;3.43;1.67;;;;;;;-145.14;100.00;70583.66;5014431;28;20436;-69
2023/08/05 10:46:13;;;;;;;2.40;1.37;;;;;;;-145.14;100.00;70583.66;5012277;28;20546;-69
2023/08/05 10:48:49;;;;;;;2.17;1.23;;;;;;;-145.14;100.00;70583.66;5015096;28;20435;-70
2023/08/05 10:51:24;;;;;;;2.77;1.63;;;;;;;-145.14;100.00;70583.66;5006299;28;21017;-70
2023/08/05 10:53:56;;;;;;;1.63;1.00;;;;;;;-145.14;100.00;70583.66;5012563;28;20439;-69
2023/08/05 10:56:29;;;;;;;3.20;1.70;;;;;;;-145.14;100.00;70583.66;5008995;28;20458;-69
2023/08/05 10:59:05;;;;;;;4.17;1.97;;;;;;;-145.14;100.00;70583.66;5010535;28;20472;-69
2023/08/05 11:01:56;;;;;;;3.10;1.90;;;;;;;-145.14;100.00;70583.66;5019345;28;20439;-69
2023/08/05 11:04:31;;;;;;;2.47;1.33;;;;;;;-145.14;100.00;70583.66;5011469;28;20431;-68
2023/08/05 11:07:00;;;;;;;3.40;1.60;;;;;;;-145.14;100.00;70583.66;5012191;28;21039;-68